N601JG TNCM-GOBD
Flight info
| Callsign | N601JG |
|---|---|
| Flight time | 5h 28m |
| Altitude | 33000 |
| Route | ELOPO DCT OTUSU DCT ELJEZ/M082F330 DCT 2150N DCT 2340N/M082F350 DCT 22N036W DCT ERNEK/N0484F350 DCT EVKAS DCT BVT DCT MOGSA DCT PIVSA |
| Aircraft | CL60/M-SBDE1E2E3FGHIJ1J4J5J7M3RWXYZ/LB1V1D1 |
Departure
| Time | 2026-04-25 14:47 |
|---|---|
| Airport | Princess Juliana International Airport (TNCM) |
Arrival
| Time | 2026-04-25 20:15 |
|---|---|
| Airport | Blaise Diagne International Airport (GOBD) |
| Time | Latitude | Longitude | Altitude | Speed | Heading |
|---|---|---|---|---|---|
| 2026-04-25 13:54 | 18.04145 | -63.11706 | 24 ft | 0 kts | 262° |
| 2026-04-25 14:37 | 18.04135 | -63.11712 | 24 ft | 7 kts | 165° |
| 2026-04-25 14:37 | 18.04102 | -63.11694 | 24 ft | 6 kts | 164° |
| 2026-04-25 14:37 | 18.04060 | -63.11726 | 24 ft | 10 kts | 260° |
| 2026-04-25 14:37 | 18.04048 | -63.11807 | 24 ft | 11 kts | 261° |
| 2026-04-25 14:38 | 18.04041 | -63.11858 | 24 ft | 0 kts | 259° |
| 2026-04-25 14:44 | 18.04036 | -63.11879 | 25 ft | 10 kts | 252° |
| 2026-04-25 14:44 | 18.03997 | -63.11950 | 24 ft | 10 kts | 227° |
| 2026-04-25 14:44 | 18.03949 | -63.11969 | 24 ft | 4 kts | 170° |
| 2026-04-25 14:44 | 18.03939 | -63.11956 | 24 ft | 0 kts | 81° |
| 2026-04-25 14:46 | 18.03977 | -63.11708 | 23 ft | 76 kts | 81° |
| 2026-04-25 14:47 | 18.04096 | -63.10878 | 15 ft | 148 kts | 81° |
| 2026-04-25 14:47 | 18.04217 | -63.10134 | 275 ft | 161 kts | 83° |
| 2026-04-25 14:47 | 18.03824 | -63.08617 | 958 ft | 179 kts | 135° |
| 2026-04-25 14:47 | 18.02662 | -63.07989 | 1343 ft | 209 kts | 161° |
| 2026-04-25 14:48 | 18.01147 | -63.07520 | 1847 ft | 236 kts | 159° |
| 2026-04-25 14:48 | 17.99607 | -63.06985 | 2880 ft | 236 kts | 163° |
| 2026-04-25 14:48 | 17.97988 | -63.06499 | 3572 ft | 248 kts | 165° |
| 2026-04-25 14:48 | 17.96290 | -63.06016 | 4314 ft | 257 kts | 165° |
| 2026-04-25 14:49 | 17.94694 | -63.05206 | 5164 ft | 261 kts | 145° |
| 2026-04-25 14:49 | 17.93363 | -63.03912 | 6117 ft | 262 kts | 130° |
| 2026-04-25 14:49 | 17.92334 | -63.02354 | 6940 ft | 268 kts | 124° |
| 2026-04-25 14:49 | 17.91351 | -63.00666 | 7640 ft | 278 kts | 123° |
| 2026-04-25 14:50 | 17.90333 | -62.98905 | 8398 ft | 284 kts | 123° |
| 2026-04-25 14:50 | 17.89299 | -62.97122 | 9179 ft | 290 kts | 123° |
| 2026-04-25 14:50 | 17.88244 | -62.95303 | 9937 ft | 295 kts | 123° |
| 2026-04-25 14:50 | 17.87152 | -62.93425 | 10320 ft | 315 kts | 123° |
| 2026-04-25 14:51 | 17.85966 | -62.91391 | 10419 ft | 343 kts | 123° |
| 2026-04-25 14:51 | 17.84688 | -62.89197 | 10862 ft | 357 kts | 123° |
| 2026-04-25 14:51 | 17.83389 | -62.86966 | 11476 ft | 363 kts | 123° |
| 2026-04-25 14:51 | 17.82070 | -62.84701 | 12132 ft | 368 kts | 123° |
| 2026-04-25 14:52 | 17.80719 | -62.82381 | 12789 ft | 372 kts | 123° |
| 2026-04-25 14:52 | 17.79377 | -62.80080 | 13433 ft | 377 kts | 123° |
| 2026-04-25 14:52 | 17.77990 | -62.77704 | 14028 ft | 382 kts | 123° |
| 2026-04-25 14:52 | 17.77062 | -62.76112 | 14429 ft | 384 kts | 123° |
| 2026-04-25 14:53 | 17.75193 | -62.72913 | 15217 ft | 389 kts | 123° |
| 2026-04-25 14:53 | 17.73756 | -62.70454 | 15805 ft | 393 kts | 124° |
| 2026-04-25 14:53 | 17.72321 | -62.68000 | 16362 ft | 397 kts | 124° |
| 2026-04-25 14:53 | 17.70868 | -62.65517 | 16886 ft | 401 kts | 124° |
| 2026-04-25 14:54 | 17.69403 | -62.63014 | 17415 ft | 404 kts | 124° |
| 2026-04-25 14:54 | 17.67928 | -62.60495 | 17941 ft | 407 kts | 124° |
| 2026-04-25 14:54 | 17.66450 | -62.57941 | 18460 ft | 412 kts | 122° |
| 2026-04-25 14:54 | 17.65360 | -62.55139 | 18928 ft | 420 kts | 106° |
| 2026-04-25 14:55 | 17.65025 | -62.52063 | 19407 ft | 427 kts | 92° |
| 2026-04-25 14:55 | 17.65056 | -62.48889 | 19815 ft | 433 kts | 91° |
| 2026-04-25 14:55 | 17.65089 | -62.45733 | 20265 ft | 437 kts | 91° |
| 2026-04-25 14:55 | 17.65120 | -62.42557 | 20721 ft | 440 kts | 91° |
| 2026-04-25 14:56 | 17.65152 | -62.39323 | 21168 ft | 443 kts | 91° |
| 2026-04-25 14:56 | 17.65183 | -62.36059 | 21625 ft | 446 kts | 91° |
| 2026-04-25 14:56 | 17.65214 | -62.32793 | 22057 ft | 448 kts | 91° |
| 2026-04-25 14:56 | 17.65245 | -62.29546 | 22432 ft | 452 kts | 91° |
| 2026-04-25 14:57 | 17.65276 | -62.26230 | 22818 ft | 455 kts | 91° |
| 2026-04-25 14:57 | 17.65307 | -62.22892 | 23227 ft | 458 kts | 91° |
| 2026-04-25 14:57 | 17.65337 | -62.19552 | 23585 ft | 461 kts | 91° |
| 2026-04-25 14:57 | 17.65367 | -62.16148 | 23942 ft | 464 kts | 91° |
| 2026-04-25 14:58 | 17.65396 | -62.12775 | 24334 ft | 466 kts | 91° |
| 2026-04-25 14:58 | 17.65425 | -62.09369 | 24648 ft | 470 kts | 91° |
| 2026-04-25 14:58 | 17.65454 | -62.05909 | 24972 ft | 473 kts | 91° |
| 2026-04-25 14:58 | 17.65483 | -62.02426 | 25304 ft | 476 kts | 91° |
| 2026-04-25 14:59 | 17.65511 | -61.98970 | 25661 ft | 478 kts | 91° |
| 2026-04-25 14:59 | 17.65539 | -61.95475 | 25950 ft | 481 kts | 91° |
| 2026-04-25 14:59 | 17.65566 | -61.91941 | 26274 ft | 483 kts | 91° |
| 2026-04-25 14:59 | 17.65593 | -61.88420 | 26558 ft | 486 kts | 91° |
| 2026-04-25 15:00 | 17.65620 | -61.84854 | 26819 ft | 490 kts | 91° |
| 2026-04-25 15:00 | 17.65646 | -61.81247 | 27082 ft | 493 kts | 91° |
| 2026-04-25 15:00 | 17.65671 | -61.77674 | 27354 ft | 495 kts | 91° |
| 2026-04-25 15:00 | 17.65696 | -61.74015 | 27640 ft | 497 kts | 91° |
| 2026-04-25 15:01 | 17.65721 | -61.70404 | 27887 ft | 500 kts | 91° |
| 2026-04-25 15:01 | 17.65745 | -61.66723 | 28153 ft | 502 kts | 91° |
| 2026-04-25 15:01 | 17.65768 | -61.63091 | 28390 ft | 505 kts | 91° |
| 2026-04-25 15:01 | 17.65790 | -61.59371 | 28633 ft | 507 kts | 91° |
| 2026-04-25 15:02 | 17.65812 | -61.55676 | 28873 ft | 509 kts | 91° |
| 2026-04-25 15:02 | 17.65834 | -61.51955 | 29108 ft | 511 kts | 91° |
| 2026-04-25 15:02 | 17.65855 | -61.48198 | 29379 ft | 511 kts | 92° |
| 2026-04-25 15:02 | 17.65875 | -61.44498 | 29611 ft | 513 kts | 92° |
| 2026-04-25 15:03 | 17.65895 | -61.40727 | 29831 ft | 514 kts | 92° |
| 2026-04-25 15:03 | 17.65914 | -61.36985 | 30021 ft | 516 kts | 92° |
| 2026-04-25 15:03 | 17.65932 | -61.33215 | 30207 ft | 517 kts | 92° |
| 2026-04-25 15:03 | 17.65950 | -61.29424 | 30344 ft | 519 kts | 92° |
| 2026-04-25 15:04 | 17.65967 | -61.25644 | 30534 ft | 520 kts | 93° |
| 2026-04-25 15:04 | 17.65984 | -61.21811 | 30681 ft | 521 kts | 92° |
| 2026-04-25 15:04 | 17.65999 | -61.18036 | 30851 ft | 522 kts | 92° |
| 2026-04-25 15:04 | 17.66014 | -61.14221 | 31094 ft | 521 kts | 93° |
| 2026-04-25 15:05 | 17.66029 | -61.10399 | 31338 ft | 519 kts | 93° |
| 2026-04-25 15:05 | 17.66043 | -61.06615 | 31596 ft | 518 kts | 93° |
| 2026-04-25 15:05 | 17.66056 | -61.02815 | 31814 ft | 517 kts | 94° |
| 2026-04-25 15:06 | 17.66079 | -60.95293 | 32224 ft | 516 kts | 94° |
| 2026-04-25 15:06 | 17.66090 | -60.91495 | 32474 ft | 515 kts | 94° |
| 2026-04-25 15:06 | 17.66100 | -60.87751 | 32649 ft | 515 kts | 94° |
| 2026-04-25 15:06 | 17.66108 | -60.83995 | 32802 ft | 515 kts | 94° |
| 2026-04-25 15:07 | 17.66117 | -60.80214 | 33004 ft | 515 kts | 94° |
| 2026-04-25 15:07 | 17.66130 | -60.72633 | 32989 ft | 522 kts | 94° |
| 2026-04-25 15:08 | 17.66141 | -60.64934 | 32990 ft | 527 kts | 94° |
| 2026-04-25 15:08 | 17.66150 | -60.57216 | 32989 ft | 531 kts | 94° |
| 2026-04-25 15:09 | 17.66157 | -60.49436 | 32992 ft | 532 kts | 94° |
| 2026-04-25 15:09 | 17.66161 | -60.37830 | 32995 ft | 531 kts | 94° |
| 2026-04-25 15:10 | 17.66160 | -60.30072 | 33002 ft | 530 kts | 94° |
| 2026-04-25 15:11 | 17.66153 | -60.18463 | 33002 ft | 530 kts | 93° |
| 2026-04-25 15:11 | 17.66144 | -60.10689 | 33002 ft | 530 kts | 94° |
| 2026-04-25 15:12 | 17.66126 | -59.99130 | 33001 ft | 528 kts | 94° |
| 2026-04-25 15:12 | 17.66112 | -59.92707 | 33008 ft | 528 kts | 94° |
| 2026-04-25 15:13 | 17.66079 | -59.79885 | 33009 ft | 529 kts | 94° |
| 2026-04-25 15:14 | 17.66055 | -59.72129 | 33000 ft | 530 kts | 94° |
| 2026-04-25 15:14 | 17.66028 | -59.64389 | 32991 ft | 529 kts | 94° |
| 2026-04-25 15:15 | 17.65999 | -59.56674 | 32989 ft | 529 kts | 93° |
| 2026-04-25 15:15 | 17.65966 | -59.48922 | 32990 ft | 529 kts | 93° |
| 2026-04-25 15:16 | 17.65930 | -59.41207 | 32990 ft | 529 kts | 93° |
| 2026-04-25 15:16 | 17.65871 | -59.29615 | 32990 ft | 528 kts | 94° |
| 2026-04-25 15:17 | 17.65805 | -59.18002 | 32989 ft | 528 kts | 94° |
| 2026-04-25 15:18 | 17.65758 | -59.10332 | 32988 ft | 528 kts | 94° |
| 2026-04-25 15:18 | 17.65681 | -58.98729 | 32991 ft | 528 kts | 94° |
| 2026-04-25 15:19 | 17.65635 | -58.92277 | 32991 ft | 528 kts | 94° |
| 2026-04-25 15:19 | 17.65568 | -58.83278 | 32995 ft | 528 kts | 94° |
| 2026-04-25 15:20 | 17.65507 | -58.75609 | 32993 ft | 528 kts | 94° |
| 2026-04-25 15:20 | 17.65443 | -58.67885 | 32996 ft | 528 kts | 94° |
| 2026-04-25 15:21 | 17.65376 | -58.60169 | 32996 ft | 528 kts | 94° |
| 2026-04-25 15:21 | 17.65306 | -58.52460 | 32996 ft | 528 kts | 94° |
| 2026-04-25 15:22 | 17.65233 | -58.44693 | 32999 ft | 528 kts | 94° |
| 2026-04-25 15:22 | 17.65156 | -58.36960 | 32998 ft | 528 kts | 94° |
| 2026-04-25 15:23 | 17.65077 | -58.29263 | 32999 ft | 527 kts | 94° |
| 2026-04-25 15:23 | 17.64996 | -58.21603 | 33001 ft | 527 kts | 94° |
| 2026-04-25 15:24 | 17.64911 | -58.13909 | 33001 ft | 527 kts | 94° |
| 2026-04-25 15:24 | 17.64838 | -58.07476 | 33004 ft | 527 kts | 94° |
| 2026-04-25 15:25 | 17.64732 | -57.98472 | 33004 ft | 528 kts | 94° |
| 2026-04-25 15:25 | 17.64638 | -57.90749 | 33003 ft | 527 kts | 94° |
| 2026-04-25 15:26 | 17.64541 | -57.83057 | 33003 ft | 527 kts | 94° |
| 2026-04-25 15:26 | 17.64441 | -57.75340 | 33008 ft | 528 kts | 94° |
| 2026-04-25 15:27 | 17.64338 | -57.67671 | 33011 ft | 527 kts | 94° |
| 2026-04-25 15:28 | 17.62984 | -57.56305 | 33011 ft | 522 kts | 104° |
| 2026-04-25 15:28 | 17.61636 | -57.48801 | 33007 ft | 521 kts | 104° |
| 2026-04-25 15:29 | 17.60290 | -57.41315 | 33008 ft | 521 kts | 104° |
| 2026-04-25 15:29 | 17.58947 | -57.33837 | 33009 ft | 521 kts | 104° |
| 2026-04-25 15:30 | 17.58254 | -57.26267 | 33014 ft | 526 kts | 90° |
| 2026-04-25 15:30 | 17.59600 | -57.18735 | 33011 ft | 531 kts | 72° |
| 2026-04-25 15:31 | 17.62988 | -57.11798 | 33011 ft | 533 kts | 54° |
| 2026-04-25 15:31 | 17.68107 | -57.06158 | 33010 ft | 531 kts | 36° |
| 2026-04-25 15:32 | 17.74490 | -57.02297 | 33010 ft | 525 kts | 18° |
| 2026-04-25 15:32 | 17.81514 | -57.00424 | 33012 ft | 517 kts | 2° |
| 2026-04-25 15:33 | 17.92310 | -56.99273 | 33013 ft | 521 kts | 11° |
| 2026-04-25 15:33 | 17.99063 | -56.96320 | 33010 ft | 529 kts | 28° |
| 2026-04-25 15:34 | 18.04816 | -56.91405 | 33012 ft | 535 kts | 46° |
| 2026-04-25 15:34 | 18.08463 | -56.86104 | 33015 ft | 537 kts | 61° |
| 2026-04-25 15:35 | 18.13266 | -56.73977 | 33017 ft | 538 kts | 69° |
| 2026-04-25 15:36 | 18.17539 | -56.63029 | 33018 ft | 538 kts | 68° |
| 2026-04-25 15:36 | 18.20476 | -56.55790 | 33019 ft | 538 kts | 67° |
| 2026-04-25 15:37 | 18.23505 | -56.48553 | 33019 ft | 537 kts | 66° |
| 2026-04-25 15:37 | 18.26607 | -56.41422 | 33021 ft | 537 kts | 65° |
| 2026-04-25 15:38 | 18.29793 | -56.34311 | 33024 ft | 537 kts | 65° |
| 2026-04-25 15:38 | 18.32990 | -56.27179 | 33025 ft | 536 kts | 65° |
| 2026-04-25 15:39 | 18.36184 | -56.20051 | 33022 ft | 536 kts | 65° |
| 2026-04-25 15:39 | 18.39366 | -56.12950 | 33029 ft | 537 kts | 65° |
| 2026-04-25 15:40 | 18.42039 | -56.06979 | 33032 ft | 537 kts | 65° |
| 2026-04-25 15:40 | 18.45765 | -55.98654 | 33032 ft | 538 kts | 65° |
| 2026-04-25 15:41 | 18.48960 | -55.91509 | 33032 ft | 539 kts | 65° |
| 2026-04-25 15:41 | 18.51894 | -55.84224 | 33031 ft | 539 kts | 68° |
| 2026-04-25 15:42 | 18.54724 | -55.76888 | 33032 ft | 538 kts | 68° |
| 2026-04-25 15:42 | 18.57616 | -55.69576 | 33032 ft | 538 kts | 67° |
| 2026-04-25 15:43 | 18.60556 | -55.62322 | 33032 ft | 537 kts | 67° |
| 2026-04-25 15:43 | 18.63568 | -55.55067 | 33032 ft | 537 kts | 66° |
| 2026-04-25 15:44 | 18.66657 | -55.47868 | 33032 ft | 537 kts | 65° |
| 2026-04-25 15:44 | 18.69816 | -55.40694 | 33032 ft | 538 kts | 65° |
| 2026-04-25 15:45 | 18.72970 | -55.33535 | 33032 ft | 538 kts | 65° |
| 2026-04-25 15:45 | 18.75601 | -55.27565 | 33032 ft | 538 kts | 65° |
| 2026-04-25 15:46 | 18.79298 | -55.19175 | 33032 ft | 538 kts | 65° |
| 2026-04-25 15:46 | 18.82456 | -55.12004 | 33031 ft | 538 kts | 65° |
| 2026-04-25 15:47 | 18.85631 | -55.04792 | 33031 ft | 538 kts | 65° |
| 2026-04-25 15:47 | 18.88780 | -54.97634 | 33029 ft | 538 kts | 65° |
| 2026-04-25 15:48 | 18.91928 | -54.90471 | 33033 ft | 538 kts | 65° |
| 2026-04-25 15:48 | 18.95089 | -54.83270 | 33033 ft | 539 kts | 65° |
| 2026-04-25 15:49 | 18.98250 | -54.76064 | 33038 ft | 539 kts | 65° |
| 2026-04-25 15:49 | 19.01395 | -54.68885 | 33035 ft | 539 kts | 65° |
| 2026-04-25 15:50 | 19.04549 | -54.61677 | 33041 ft | 539 kts | 64° |
| 2026-04-25 15:50 | 19.07688 | -54.54495 | 33040 ft | 539 kts | 65° |
| 2026-04-25 15:51 | 19.10330 | -54.48442 | 33040 ft | 539 kts | 65° |
| 2026-04-25 15:51 | 19.13987 | -54.40054 | 33042 ft | 540 kts | 64° |
| 2026-04-25 15:52 | 19.17146 | -54.32800 | 33044 ft | 540 kts | 65° |
| 2026-04-25 15:52 | 19.20282 | -54.25589 | 33045 ft | 540 kts | 65° |
| 2026-04-25 15:53 | 19.23421 | -54.18361 | 33048 ft | 539 kts | 65° |
| 2026-04-25 15:53 | 19.26542 | -54.11166 | 33046 ft | 540 kts | 65° |
| 2026-04-25 15:54 | 19.29680 | -54.03922 | 33050 ft | 540 kts | 65° |
| 2026-04-25 15:54 | 19.32804 | -53.96703 | 33040 ft | 540 kts | 65° |
| 2026-04-25 15:55 | 19.35945 | -53.89433 | 33033 ft | 540 kts | 65° |
| 2026-04-25 15:55 | 19.39060 | -53.82215 | 33037 ft | 540 kts | 65° |
| 2026-04-25 15:56 | 19.42190 | -53.74953 | 33038 ft | 541 kts | 65° |
| 2026-04-25 15:56 | 19.45320 | -53.67681 | 33037 ft | 541 kts | 65° |
| 2026-04-25 15:57 | 19.48451 | -53.60397 | 33035 ft | 541 kts | 65° |
| 2026-04-25 15:57 | 19.51583 | -53.53102 | 33037 ft | 541 kts | 65° |
| 2026-04-25 15:58 | 19.54702 | -53.45826 | 33038 ft | 541 kts | 65° |
| 2026-04-25 15:58 | 19.57816 | -53.38554 | 33041 ft | 541 kts | 65° |
| 2026-04-25 15:59 | 19.60938 | -53.31253 | 33040 ft | 541 kts | 65° |
| 2026-04-25 15:59 | 19.64051 | -53.23963 | 33041 ft | 541 kts | 65° |
| 2026-04-25 16:00 | 19.66120 | -53.19112 | 33041 ft | 541 kts | 65° |
| 2026-04-25 16:00 | 19.70245 | -53.09429 | 33038 ft | 541 kts | 65° |
| 2026-04-25 16:01 | 19.73346 | -53.02137 | 33033 ft | 541 kts | 65° |
| 2026-04-25 16:01 | 19.76443 | -52.94846 | 33032 ft | 541 kts | 65° |
| 2026-04-25 16:02 | 19.79537 | -52.87553 | 33032 ft | 542 kts | 65° |
| 2026-04-25 16:02 | 19.82653 | -52.80196 | 33035 ft | 542 kts | 65° |
| 2026-04-25 16:03 | 19.85734 | -52.72914 | 33038 ft | 543 kts | 65° |
| 2026-04-25 16:03 | 19.88844 | -52.65552 | 33038 ft | 543 kts | 65° |
| 2026-04-25 16:04 | 19.91923 | -52.58254 | 33039 ft | 543 kts | 65° |
| 2026-04-25 16:04 | 19.95025 | -52.50889 | 33037 ft | 544 kts | 65° |
| 2026-04-25 16:05 | 19.98111 | -52.43555 | 33032 ft | 544 kts | 65° |
| 2026-04-25 16:06 | 20.02778 | -52.32442 | 33032 ft | 545 kts | 65° |
| 2026-04-25 16:06 | 20.05861 | -52.25089 | 33032 ft | 545 kts | 65° |
| 2026-04-25 16:07 | 20.08971 | -52.17661 | 33032 ft | 546 kts | 65° |
| 2026-04-25 16:07 | 20.12056 | -52.10282 | 33033 ft | 546 kts | 65° |
| 2026-04-25 16:08 | 20.15157 | -52.02856 | 33033 ft | 546 kts | 65° |
| 2026-04-25 16:08 | 20.18250 | -51.95436 | 33032 ft | 547 kts | 65° |
| 2026-04-25 16:09 | 20.21346 | -51.88001 | 33032 ft | 547 kts | 65° |
| 2026-04-25 16:09 | 20.24431 | -51.80581 | 33032 ft | 547 kts | 65° |
| 2026-04-25 16:10 | 20.27497 | -51.73194 | 33033 ft | 546 kts | 65° |
| 2026-04-25 16:10 | 20.30572 | -51.65777 | 33031 ft | 546 kts | 65° |
| 2026-04-25 16:11 | 20.33635 | -51.58378 | 33031 ft | 546 kts | 65° |
| 2026-04-25 16:11 | 20.36708 | -51.50945 | 33032 ft | 547 kts | 65° |
| 2026-04-25 16:12 | 20.39767 | -51.43535 | 33032 ft | 547 kts | 65° |
| 2026-04-25 16:12 | 20.42843 | -51.36075 | 33032 ft | 548 kts | 65° |
| 2026-04-25 16:13 | 20.45888 | -51.28677 | 33032 ft | 547 kts | 65° |
| 2026-04-25 16:13 | 20.48946 | -51.21238 | 33036 ft | 547 kts | 65° |
| 2026-04-25 16:14 | 20.52018 | -51.13753 | 33041 ft | 548 kts | 65° |
| 2026-04-25 16:14 | 20.55070 | -51.06308 | 33038 ft | 548 kts | 65° |
| 2026-04-25 16:15 | 20.58118 | -50.98860 | 33042 ft | 548 kts | 65° |
| 2026-04-25 16:15 | 20.61168 | -50.91399 | 33041 ft | 548 kts | 65° |
| 2026-04-25 16:16 | 20.64231 | -50.83892 | 33041 ft | 549 kts | 65° |
| 2026-04-25 16:16 | 20.67262 | -50.76453 | 33043 ft | 549 kts | 65° |
| 2026-04-25 16:17 | 20.70305 | -50.68975 | 33042 ft | 549 kts | 65° |
| 2026-04-25 16:17 | 20.73358 | -50.61460 | 33042 ft | 549 kts | 65° |
| 2026-04-25 16:18 | 20.76394 | -50.53977 | 33043 ft | 550 kts | 65° |
| 2026-04-25 16:18 | 20.79441 | -50.46457 | 33047 ft | 550 kts | 65° |
| 2026-04-25 16:19 | 20.82490 | -50.38920 | 33045 ft | 551 kts | 65° |
| 2026-04-25 16:19 | 20.85526 | -50.31405 | 33047 ft | 551 kts | 65° |
| 2026-04-25 16:20 | 20.90079 | -50.20112 | 33049 ft | 551 kts | 65° |
| 2026-04-25 16:21 | 20.94631 | -50.08796 | 33052 ft | 551 kts | 65° |
| 2026-04-25 16:21 | 20.97652 | -50.01243 | 33051 ft | 552 kts | 66° |
| 2026-04-25 16:22 | 20.99829 | -49.93370 | 33049 ft | 553 kts | 76° |
| 2026-04-25 16:22 | 21.01683 | -49.85354 | 33056 ft | 553 kts | 76° |
| 2026-04-25 16:23 | 21.03534 | -49.77349 | 33056 ft | 553 kts | 76° |
| 2026-04-25 16:23 | 21.05382 | -49.69346 | 33057 ft | 553 kts | 76° |
| 2026-04-25 16:24 | 21.07223 | -49.61360 | 33053 ft | 553 kts | 76° |
| 2026-04-25 16:24 | 21.09066 | -49.53351 | 33052 ft | 553 kts | 76° |
| 2026-04-25 16:25 | 21.10900 | -49.45360 | 33054 ft | 552 kts | 75° |
| 2026-04-25 16:25 | 21.12729 | -49.37378 | 33054 ft | 552 kts | 76° |
| 2026-04-25 16:26 | 21.14557 | -49.29382 | 33056 ft | 551 kts | 76° |
| 2026-04-25 16:26 | 21.16383 | -49.21374 | 33053 ft | 552 kts | 76° |
| 2026-04-25 16:27 | 21.18203 | -49.13376 | 33053 ft | 553 kts | 76° |
| 2026-04-25 16:27 | 21.20028 | -49.05341 | 33052 ft | 553 kts | 76° |
| 2026-04-25 16:28 | 21.21836 | -48.97356 | 33053 ft | 554 kts | 76° |
| 2026-04-25 16:28 | 21.23657 | -48.89300 | 33056 ft | 554 kts | 76° |
| 2026-04-25 16:29 | 21.25464 | -48.81291 | 33055 ft | 553 kts | 76° |
| 2026-04-25 16:29 | 21.27273 | -48.73250 | 33057 ft | 553 kts | 76° |
| 2026-04-25 16:30 | 21.28783 | -48.66523 | 33061 ft | 552 kts | 76° |
| 2026-04-25 16:30 | 21.30879 | -48.57165 | 33061 ft | 552 kts | 76° |
| 2026-04-25 16:31 | 21.32664 | -48.49173 | 33064 ft | 553 kts | 76° |
| 2026-04-25 16:31 | 21.34453 | -48.41144 | 33063 ft | 553 kts | 76° |
| 2026-04-25 16:32 | 21.36246 | -48.33083 | 33056 ft | 553 kts | 76° |
| 2026-04-25 16:32 | 21.38030 | -48.25040 | 33059 ft | 553 kts | 76° |
| 2026-04-25 16:33 | 21.39801 | -48.17035 | 33061 ft | 553 kts | 76° |
| 2026-04-25 16:33 | 21.41578 | -48.08984 | 33059 ft | 553 kts | 76° |
| 2026-04-25 16:34 | 21.43344 | -48.00962 | 33061 ft | 553 kts | 76° |
| 2026-04-25 16:34 | 21.45116 | -47.92899 | 33058 ft | 554 kts | 76° |
| 2026-04-25 16:35 | 21.46876 | -47.84871 | 33053 ft | 554 kts | 76° |
| 2026-04-25 16:35 | 21.48647 | -47.76766 | 33056 ft | 555 kts | 76° |
| 2026-04-25 16:36 | 21.50408 | -47.68696 | 33062 ft | 555 kts | 76° |
| 2026-04-25 16:36 | 21.52163 | -47.60628 | 33062 ft | 555 kts | 76° |
| 2026-04-25 16:37 | 21.53924 | -47.52516 | 33064 ft | 555 kts | 76° |
| 2026-04-25 16:37 | 21.55675 | -47.44427 | 33059 ft | 555 kts | 75° |
| 2026-04-25 16:38 | 21.57418 | -47.36358 | 33059 ft | 554 kts | 75° |
| 2026-04-25 16:38 | 21.59156 | -47.28291 | 33062 ft | 554 kts | 76° |
| 2026-04-25 16:39 | 21.60900 | -47.20173 | 33059 ft | 554 kts | 76° |
| 2026-04-25 16:39 | 21.62646 | -47.12032 | 33065 ft | 554 kts | 76° |
| 2026-04-25 16:40 | 21.64383 | -47.03910 | 33063 ft | 554 kts | 76° |
| 2026-04-25 16:40 | 21.66098 | -46.95869 | 33068 ft | 554 kts | 76° |
| 2026-04-25 16:41 | 21.67818 | -46.87787 | 33066 ft | 554 kts | 76° |
| 2026-04-25 16:41 | 21.70387 | -46.75674 | 33068 ft | 554 kts | 76° |
| 2026-04-25 16:42 | 21.72096 | -46.67593 | 33069 ft | 554 kts | 76° |
| 2026-04-25 16:42 | 21.73812 | -46.59459 | 33070 ft | 555 kts | 76° |
| 2026-04-25 16:43 | 21.75511 | -46.51383 | 33066 ft | 555 kts | 75° |
| 2026-04-25 16:43 | 21.77216 | -46.43257 | 33060 ft | 555 kts | 75° |
| 2026-04-25 16:44 | 21.78914 | -46.35147 | 33064 ft | 555 kts | 76° |
| 2026-04-25 16:44 | 21.80597 | -46.27084 | 33068 ft | 554 kts | 76° |
| 2026-04-25 16:45 | 21.82287 | -46.18966 | 33068 ft | 555 kts | 76° |
| 2026-04-25 16:45 | 21.83975 | -46.10842 | 33070 ft | 555 kts | 76° |
| 2026-04-25 16:46 | 21.85661 | -46.02699 | 33071 ft | 556 kts | 76° |
| 2026-04-25 16:46 | 21.87054 | -45.95963 | 33072 ft | 556 kts | 76° |
| 2026-04-25 16:47 | 21.89011 | -45.86466 | 33073 ft | 556 kts | 76° |
| 2026-04-25 16:47 | 21.90685 | -45.78323 | 33074 ft | 555 kts | 76° |
| 2026-04-25 16:48 | 21.92346 | -45.70222 | 33076 ft | 555 kts | 75° |
| 2026-04-25 16:48 | 21.94009 | -45.62091 | 33082 ft | 556 kts | 76° |
| 2026-04-25 16:49 | 21.95667 | -45.53960 | 33080 ft | 556 kts | 75° |
| 2026-04-25 16:49 | 21.97332 | -45.45772 | 33082 ft | 557 kts | 75° |
| 2026-04-25 16:50 | 21.98977 | -45.37665 | 33080 ft | 556 kts | 75° |
| 2026-04-25 16:50 | 22.00630 | -45.29495 | 33089 ft | 555 kts | 76° |
| 2026-04-25 16:51 | 22.02264 | -45.21395 | 33084 ft | 556 kts | 76° |
| 2026-04-25 16:51 | 22.03640 | -45.14561 | 33090 ft | 556 kts | 76° |
| 2026-04-25 16:52 | 22.05550 | -45.05047 | 33090 ft | 556 kts | 76° |
| 2026-04-25 16:52 | 22.07178 | -44.96912 | 33094 ft | 557 kts | 76° |
| 2026-04-25 16:53 | 22.09618 | -44.84678 | 33094 ft | 556 kts | 76° |
| 2026-04-25 16:54 | 22.11239 | -44.76524 | 33094 ft | 556 kts | 76° |
| 2026-04-25 16:54 | 22.12856 | -44.68367 | 33095 ft | 556 kts | 76° |
| 2026-04-25 16:55 | 22.14472 | -44.60192 | 33094 ft | 555 kts | 76° |
| 2026-04-25 16:55 | 22.16081 | -44.52031 | 33095 ft | 555 kts | 75° |
| 2026-04-25 16:56 | 22.17683 | -44.43883 | 33094 ft | 555 kts | 75° |
| 2026-04-25 16:56 | 22.19273 | -44.35773 | 33094 ft | 555 kts | 75° |
| 2026-04-25 16:57 | 22.20874 | -44.27587 | 33091 ft | 555 kts | 76° |
| 2026-04-25 16:57 | 22.22464 | -44.19434 | 33090 ft | 555 kts | 76° |
| 2026-04-25 16:58 | 22.24042 | -44.11322 | 33091 ft | 555 kts | 76° |
| 2026-04-25 16:58 | 22.25625 | -44.03161 | 33092 ft | 555 kts | 76° |
| 2026-04-25 16:59 | 22.27205 | -43.94989 | 33094 ft | 555 kts | 76° |
| 2026-04-25 16:59 | 22.28783 | -43.86804 | 33094 ft | 555 kts | 76° |
| 2026-04-25 17:00 | 22.30352 | -43.78645 | 33094 ft | 555 kts | 76° |
| 2026-04-25 17:00 | 22.31918 | -43.70478 | 33094 ft | 555 kts | 76° |
| 2026-04-25 17:01 | 22.33481 | -43.62304 | 33094 ft | 555 kts | 76° |
| 2026-04-25 17:01 | 22.35038 | -43.54139 | 33092 ft | 555 kts | 76° |
| 2026-04-25 17:02 | 22.36591 | -43.45970 | 33091 ft | 555 kts | 76° |
| 2026-04-25 17:02 | 22.38140 | -43.37802 | 33091 ft | 555 kts | 75° |
| 2026-04-25 17:03 | 22.39685 | -43.29627 | 33092 ft | 554 kts | 76° |
| 2026-04-25 17:03 | 22.41227 | -43.21448 | 33095 ft | 555 kts | 76° |
| 2026-04-25 17:04 | 22.42756 | -43.13312 | 33094 ft | 555 kts | 76° |
| 2026-04-25 17:04 | 22.44287 | -43.05142 | 33094 ft | 555 kts | 76° |
| 2026-04-25 17:05 | 22.45826 | -42.96911 | 33094 ft | 555 kts | 76° |
| 2026-04-25 17:05 | 22.48105 | -42.84670 | 33095 ft | 554 kts | 76° |
| 2026-04-25 17:06 | 22.49619 | -42.76509 | 33094 ft | 554 kts | 76° |
| 2026-04-25 17:06 | 22.51137 | -42.68303 | 33091 ft | 554 kts | 76° |
| 2026-04-25 17:07 | 22.52642 | -42.60146 | 33092 ft | 554 kts | 76° |
| 2026-04-25 17:07 | 22.54156 | -42.51910 | 33092 ft | 554 kts | 76° |
| 2026-04-25 17:08 | 22.55647 | -42.43778 | 33093 ft | 554 kts | 75° |
| 2026-04-25 17:08 | 22.57150 | -42.35552 | 33094 ft | 554 kts | 75° |
| 2026-04-25 17:09 | 22.58632 | -42.27421 | 33095 ft | 553 kts | 76° |
| 2026-04-25 17:09 | 22.60121 | -42.19224 | 33094 ft | 553 kts | 76° |
| 2026-04-25 17:10 | 22.61598 | -42.11078 | 33094 ft | 553 kts | 76° |
| 2026-04-25 17:10 | 22.63074 | -42.02904 | 33092 ft | 553 kts | 76° |
| 2026-04-25 17:11 | 22.64542 | -41.94752 | 33093 ft | 553 kts | 76° |
| 2026-04-25 17:11 | 22.66014 | -41.86549 | 33093 ft | 553 kts | 76° |
| 2026-04-25 17:12 | 22.67475 | -41.78392 | 33094 ft | 553 kts | 76° |
| 2026-04-25 17:12 | 22.68938 | -41.70189 | 33092 ft | 553 kts | 76° |
| 2026-04-25 17:13 | 22.70149 | -41.63389 | 33093 ft | 553 kts | 76° |
| 2026-04-25 17:13 | 22.71845 | -41.53826 | 33094 ft | 553 kts | 76° |
| 2026-04-25 17:14 | 22.73288 | -41.45661 | 33094 ft | 553 kts | 75° |
| 2026-04-25 17:14 | 22.74730 | -41.37481 | 33094 ft | 553 kts | 75° |
| 2026-04-25 17:15 | 22.76174 | -41.29263 | 33094 ft | 552 kts | 76° |
| 2026-04-25 17:15 | 22.77612 | -41.21054 | 33094 ft | 552 kts | 76° |
| 2026-04-25 17:16 | 22.79043 | -41.12862 | 33093 ft | 553 kts | 76° |
| 2026-04-25 17:16 | 22.80475 | -41.04638 | 33093 ft | 554 kts | 75° |
| 2026-04-25 17:17 | 22.81899 | -40.96428 | 33093 ft | 553 kts | 76° |
| 2026-04-25 17:17 | 22.83316 | -40.88238 | 33092 ft | 554 kts | 75° |
| 2026-04-25 17:18 | 22.84729 | -40.80042 | 33094 ft | 555 kts | 75° |
| 2026-04-25 17:18 | 22.86147 | -40.71791 | 33094 ft | 555 kts | 75° |
| 2026-04-25 17:19 | 22.87558 | -40.63558 | 33094 ft | 555 kts | 75° |
| 2026-04-25 17:19 | 22.88960 | -40.55348 | 33095 ft | 555 kts | 75° |
| 2026-04-25 17:20 | 22.90359 | -40.47128 | 33094 ft | 554 kts | 75° |
| 2026-04-25 17:20 | 22.91760 | -40.38869 | 33094 ft | 554 kts | 75° |
| 2026-04-25 17:21 | 22.93150 | -40.30648 | 33094 ft | 553 kts | 76° |
| 2026-04-25 17:21 | 22.94532 | -40.22449 | 33094 ft | 553 kts | 76° |
| 2026-04-25 17:22 | 22.95684 | -40.15599 | 33095 ft | 554 kts | 75° |
| 2026-04-25 17:22 | 22.97181 | -40.05924 | 33095 ft | 557 kts | 80° |
| 2026-04-25 17:23 | 22.97210 | -39.97532 | 33094 ft | 563 kts | 94° |
| 2026-04-25 17:23 | 22.95717 | -39.89133 | 33093 ft | 566 kts | 103° |
| 2026-04-25 17:24 | 22.93752 | -39.80869 | 33094 ft | 566 kts | 104° |
| 2026-04-25 17:24 | 22.91785 | -39.72594 | 33094 ft | 566 kts | 103° |
| 2026-04-25 17:25 | 22.89808 | -39.64295 | 33095 ft | 566 kts | 103° |
| 2026-04-25 17:25 | 22.87824 | -39.55990 | 33094 ft | 567 kts | 103° |
| 2026-04-25 17:26 | 22.85848 | -39.47735 | 33094 ft | 567 kts | 103° |
| 2026-04-25 17:26 | 22.83856 | -39.39429 | 33094 ft | 566 kts | 103° |
| 2026-04-25 17:27 | 22.81878 | -39.31206 | 33094 ft | 566 kts | 104° |
| 2026-04-25 17:27 | 22.80212 | -39.24294 | 33094 ft | 566 kts | 104° |
| 2026-04-25 17:28 | 22.77881 | -39.14645 | 33095 ft | 567 kts | 103° |
| 2026-04-25 17:28 | 22.75885 | -39.06406 | 33094 ft | 567 kts | 104° |
| 2026-04-25 17:29 | 22.73867 | -38.98094 | 33094 ft | 568 kts | 104° |
| 2026-04-25 17:29 | 22.71851 | -38.89809 | 33095 ft | 568 kts | 103° |
| 2026-04-25 17:30 | 22.69826 | -38.81509 | 33095 ft | 568 kts | 104° |
| 2026-04-25 17:30 | 22.67884 | -38.73567 | 33090 ft | 568 kts | 103° |
| 2026-04-25 17:31 | 22.65845 | -38.65249 | 33095 ft | 567 kts | 103° |
| 2026-04-25 17:31 | 22.63818 | -38.57000 | 33094 ft | 567 kts | 104° |
| 2026-04-25 17:32 | 22.61784 | -38.48740 | 33123 ft | 566 kts | 104° |
| 2026-04-25 17:32 | 22.59779 | -38.40624 | 33087 ft | 552 kts | 104° |
| 2026-04-25 17:33 | 22.57790 | -38.32583 | 33095 ft | 549 kts | 104° |
| 2026-04-25 17:33 | 22.55800 | -38.24559 | 33097 ft | 556 kts | 104° |
| 2026-04-25 17:34 | 22.53771 | -38.16395 | 33147 ft | 562 kts | 104° |
| 2026-04-25 17:34 | 22.52757 | -38.12323 | 33396 ft | 561 kts | 104° |
| 2026-04-25 17:34 | 22.51736 | -38.08228 | 33558 ft | 561 kts | 104° |
| 2026-04-25 17:35 | 22.50711 | -38.04122 | 33694 ft | 562 kts | 104° |
| 2026-04-25 17:35 | 22.49703 | -38.00085 | 33862 ft | 562 kts | 104° |
| 2026-04-25 17:35 | 22.48679 | -37.95995 | 34062 ft | 561 kts | 104° |
| 2026-04-25 17:35 | 22.47652 | -37.91895 | 34096 ft | 564 kts | 104° |
| 2026-04-25 17:36 | 22.45595 | -37.83696 | 34093 ft | 565 kts | 104° |
| 2026-04-25 17:36 | 22.43544 | -37.75542 | 34094 ft | 564 kts | 104° |
| 2026-04-25 17:37 | 22.41487 | -37.67381 | 34093 ft | 562 kts | 104° |
| 2026-04-25 17:37 | 22.39424 | -37.59216 | 34092 ft | 562 kts | 104° |
| 2026-04-25 17:38 | 22.37704 | -37.52421 | 34095 ft | 561 kts | 104° |
| 2026-04-25 17:38 | 22.35293 | -37.42919 | 34094 ft | 562 kts | 104° |
| 2026-04-25 17:39 | 22.33222 | -37.34777 | 34093 ft | 563 kts | 104° |
| 2026-04-25 17:39 | 22.31133 | -37.26584 | 34094 ft | 563 kts | 104° |
| 2026-04-25 17:40 | 22.29051 | -37.18436 | 34094 ft | 563 kts | 105° |
| 2026-04-25 17:40 | 22.26963 | -37.10281 | 34093 ft | 563 kts | 104° |
| 2026-04-25 17:41 | 22.24869 | -37.02125 | 34093 ft | 563 kts | 104° |
| 2026-04-25 17:41 | 22.22772 | -36.93971 | 34095 ft | 563 kts | 105° |
| 2026-04-25 17:42 | 22.20671 | -36.85824 | 34093 ft | 564 kts | 105° |
| 2026-04-25 17:42 | 22.18559 | -36.77649 | 34095 ft | 563 kts | 105° |
| 2026-04-25 17:43 | 22.16459 | -36.69540 | 34093 ft | 563 kts | 105° |
| 2026-04-25 17:43 | 22.14344 | -36.61391 | 34094 ft | 563 kts | 104° |
| 2026-04-25 17:44 | 22.12230 | -36.53265 | 34093 ft | 563 kts | 104° |
| 2026-04-25 17:44 | 22.10105 | -36.45115 | 34095 ft | 563 kts | 104° |
| 2026-04-25 17:45 | 22.08332 | -36.38328 | 34093 ft | 563 kts | 105° |
| 2026-04-25 17:45 | 22.05850 | -36.28845 | 34093 ft | 562 kts | 105° |
| 2026-04-25 17:46 | 22.03723 | -36.20739 | 34094 ft | 562 kts | 104° |
| 2026-04-25 17:46 | 22.01594 | -36.12646 | 34093 ft | 562 kts | 105° |
| 2026-04-25 17:47 | 21.99456 | -36.04531 | 34092 ft | 563 kts | 105° |
| 2026-04-25 17:47 | 21.97029 | -35.96481 | 34093 ft | 563 kts | 110° |
| 2026-04-25 17:48 | 21.92836 | -35.84615 | 34091 ft | 564 kts | 110° |
| 2026-04-25 17:49 | 21.90046 | -35.76718 | 34091 ft | 563 kts | 110° |
| 2026-04-25 17:49 | 21.87251 | -35.68813 | 34094 ft | 563 kts | 110° |
| 2026-04-25 17:50 | 21.84456 | -35.60916 | 34093 ft | 564 kts | 111° |
| 2026-04-25 17:50 | 21.81656 | -35.53018 | 34089 ft | 564 kts | 110° |
| 2026-04-25 17:51 | 21.78852 | -35.45123 | 34091 ft | 565 kts | 110° |
| 2026-04-25 17:51 | 21.76036 | -35.37203 | 34089 ft | 564 kts | 110° |
| 2026-04-25 17:52 | 21.73225 | -35.29311 | 34086 ft | 564 kts | 111° |
| 2026-04-25 17:52 | 21.70418 | -35.21439 | 34087 ft | 564 kts | 111° |
| 2026-04-25 17:53 | 21.67591 | -35.13529 | 34085 ft | 564 kts | 111° |
| 2026-04-25 17:53 | 21.64767 | -35.05639 | 34087 ft | 565 kts | 111° |
| 2026-04-25 17:54 | 21.61945 | -34.97767 | 34087 ft | 565 kts | 111° |
| 2026-04-25 17:54 | 21.59101 | -34.89845 | 34087 ft | 565 kts | 111° |
| 2026-04-25 17:55 | 21.56277 | -34.81993 | 34086 ft | 565 kts | 111° |
| 2026-04-25 17:55 | 21.53433 | -34.74099 | 34085 ft | 565 kts | 111° |
| 2026-04-25 17:56 | 21.50592 | -34.66227 | 34083 ft | 564 kts | 111° |
| 2026-04-25 17:56 | 21.47736 | -34.58328 | 34085 ft | 564 kts | 111° |
| 2026-04-25 17:57 | 21.44893 | -34.50477 | 34083 ft | 564 kts | 111° |
| 2026-04-25 17:57 | 21.42067 | -34.42686 | 34086 ft | 563 kts | 111° |
| 2026-04-25 17:58 | 21.39204 | -34.34804 | 34080 ft | 563 kts | 111° |
| 2026-04-25 17:58 | 21.36360 | -34.26989 | 34082 ft | 562 kts | 111° |
| 2026-04-25 17:59 | 21.33516 | -34.19188 | 34080 ft | 563 kts | 111° |
| 2026-04-25 17:59 | 21.30653 | -34.11346 | 34081 ft | 564 kts | 111° |
| 2026-04-25 18:00 | 21.27773 | -34.03471 | 34081 ft | 564 kts | 111° |
| 2026-04-25 18:00 | 21.24918 | -33.95678 | 34081 ft | 564 kts | 111° |
| 2026-04-25 18:01 | 21.22026 | -33.87797 | 34078 ft | 564 kts | 111° |
| 2026-04-25 18:01 | 21.19162 | -33.80004 | 34078 ft | 564 kts | 111° |
| 2026-04-25 18:02 | 21.16288 | -33.72198 | 34077 ft | 563 kts | 111° |
| 2026-04-25 18:02 | 21.13403 | -33.64372 | 34077 ft | 563 kts | 111° |
| 2026-04-25 18:03 | 21.10520 | -33.56567 | 34076 ft | 563 kts | 111° |
| 2026-04-25 18:03 | 21.07631 | -33.48759 | 34076 ft | 563 kts | 111° |
| 2026-04-25 18:04 | 21.04729 | -33.40928 | 34073 ft | 563 kts | 112° |
| 2026-04-25 18:04 | 21.01831 | -33.33120 | 34074 ft | 563 kts | 112° |
| 2026-04-25 18:05 | 20.98928 | -33.25312 | 34075 ft | 563 kts | 112° |
| 2026-04-25 18:05 | 20.96012 | -33.17480 | 34074 ft | 563 kts | 112° |
| 2026-04-25 18:06 | 20.93099 | -33.09669 | 34074 ft | 564 kts | 112° |
| 2026-04-25 18:06 | 20.90183 | -33.01864 | 34075 ft | 563 kts | 112° |
| 2026-04-25 18:07 | 20.87267 | -32.94069 | 34066 ft | 563 kts | 112° |
| 2026-04-25 18:07 | 20.84363 | -32.86322 | 34053 ft | 563 kts | 111° |
| 2026-04-25 18:08 | 20.81439 | -32.78532 | 34052 ft | 563 kts | 111° |
| 2026-04-25 18:08 | 20.78526 | -32.70782 | 34053 ft | 563 kts | 112° |
| 2026-04-25 18:09 | 20.75595 | -32.62999 | 34053 ft | 563 kts | 112° |
| 2026-04-25 18:09 | 20.72659 | -32.55213 | 34053 ft | 563 kts | 111° |
| 2026-04-25 18:10 | 20.69727 | -32.47450 | 34053 ft | 563 kts | 111° |
| 2026-04-25 18:10 | 20.66786 | -32.39677 | 34052 ft | 563 kts | 111° |
| 2026-04-25 18:11 | 20.63857 | -32.31947 | 34053 ft | 563 kts | 112° |
| 2026-04-25 18:11 | 20.60915 | -32.24195 | 34053 ft | 562 kts | 112° |
| 2026-04-25 18:12 | 20.57960 | -32.16418 | 34054 ft | 562 kts | 112° |
| 2026-04-25 18:12 | 20.55012 | -32.08676 | 34053 ft | 562 kts | 112° |
| 2026-04-25 18:13 | 20.52072 | -32.00966 | 34051 ft | 562 kts | 112° |
| 2026-04-25 18:13 | 20.49115 | -31.93222 | 34051 ft | 562 kts | 112° |
| 2026-04-25 18:14 | 20.44686 | -31.81644 | 34051 ft | 562 kts | 112° |
| 2026-04-25 18:14 | 20.41716 | -31.73899 | 34050 ft | 562 kts | 112° |
| 2026-04-25 18:15 | 20.38465 | -31.66278 | 34046 ft | 561 kts | 115° |
| 2026-04-25 18:15 | 20.35149 | -31.58739 | 34048 ft | 561 kts | 115° |
| 2026-04-25 18:16 | 20.31815 | -31.51166 | 34049 ft | 561 kts | 115° |
| 2026-04-25 18:17 | 20.26838 | -31.39874 | 34044 ft | 562 kts | 115° |
| 2026-04-25 18:17 | 20.23504 | -31.32322 | 34042 ft | 561 kts | 116° |
| 2026-04-25 18:18 | 20.20158 | -31.24748 | 34043 ft | 561 kts | 116° |
| 2026-04-25 18:18 | 20.16834 | -31.17236 | 34039 ft | 561 kts | 116° |
| 2026-04-25 18:19 | 20.13496 | -31.09702 | 34044 ft | 561 kts | 116° |
| 2026-04-25 18:19 | 20.10145 | -31.02147 | 34054 ft | 561 kts | 116° |
| 2026-04-25 18:20 | 20.06818 | -30.94656 | 34257 ft | 561 kts | 116° |
| 2026-04-25 18:20 | 20.05137 | -30.90875 | 34526 ft | 560 kts | 116° |
| 2026-04-25 18:20 | 20.03474 | -30.87137 | 34836 ft | 557 kts | 116° |
| 2026-04-25 18:20 | 20.01815 | -30.83413 | 35064 ft | 557 kts | 116° |
| 2026-04-25 18:21 | 20.00148 | -30.79670 | 35046 ft | 559 kts | 115° |
| 2026-04-25 18:21 | 19.96796 | -30.72153 | 35051 ft | 558 kts | 116° |
| 2026-04-25 18:22 | 19.93464 | -30.64692 | 35052 ft | 557 kts | 116° |
| 2026-04-25 18:22 | 19.90123 | -30.57219 | 35051 ft | 556 kts | 115° |
| 2026-04-25 18:23 | 19.86813 | -30.49828 | 35050 ft | 555 kts | 116° |
| 2026-04-25 18:23 | 19.83480 | -30.42393 | 35049 ft | 555 kts | 116° |
| 2026-04-25 18:24 | 19.80147 | -30.34967 | 35048 ft | 555 kts | 116° |
| 2026-04-25 18:24 | 19.76829 | -30.27585 | 35048 ft | 554 kts | 116° |
| 2026-04-25 18:25 | 19.73504 | -30.20199 | 35049 ft | 554 kts | 116° |
| 2026-04-25 18:25 | 19.70170 | -30.12801 | 35047 ft | 554 kts | 116° |
| 2026-04-25 18:26 | 19.66837 | -30.05417 | 35046 ft | 554 kts | 116° |
| 2026-04-25 18:26 | 19.63505 | -29.98044 | 35045 ft | 554 kts | 116° |
| 2026-04-25 18:27 | 19.60162 | -29.90655 | 35041 ft | 553 kts | 116° |
| 2026-04-25 18:27 | 19.56826 | -29.83293 | 35043 ft | 553 kts | 116° |
| 2026-04-25 18:28 | 19.53495 | -29.75952 | 35042 ft | 552 kts | 116° |
| 2026-04-25 18:28 | 19.50162 | -29.68614 | 35039 ft | 551 kts | 116° |
| 2026-04-25 18:29 | 19.45133 | -29.57563 | 35038 ft | 551 kts | 116° |
| 2026-04-25 18:30 | 19.38439 | -29.42885 | 35036 ft | 550 kts | 116° |
| 2026-04-25 18:30 | 19.35103 | -29.35583 | 35035 ft | 549 kts | 116° |
| 2026-04-25 18:31 | 19.31752 | -29.28258 | 35034 ft | 548 kts | 117° |
| 2026-04-25 18:31 | 19.28412 | -29.20967 | 35033 ft | 547 kts | 116° |
| 2026-04-25 18:32 | 19.25061 | -29.13662 | 35033 ft | 547 kts | 117° |
| 2026-04-25 18:32 | 19.21747 | -29.06446 | 35031 ft | 547 kts | 117° |
| 2026-04-25 18:33 | 19.18398 | -28.99161 | 35031 ft | 547 kts | 117° |
| 2026-04-25 18:33 | 19.15070 | -28.91932 | 35033 ft | 546 kts | 117° |
| 2026-04-25 18:34 | 19.11731 | -28.84689 | 35035 ft | 546 kts | 117° |
| 2026-04-25 18:34 | 19.08403 | -28.77480 | 35034 ft | 546 kts | 117° |
| 2026-04-25 18:35 | 19.05063 | -28.70253 | 35031 ft | 545 kts | 117° |
| 2026-04-25 18:35 | 19.01727 | -28.63041 | 35030 ft | 545 kts | 117° |
| 2026-04-25 18:36 | 18.98398 | -28.55856 | 35033 ft | 545 kts | 117° |
| 2026-04-25 18:36 | 18.95047 | -28.48632 | 35029 ft | 544 kts | 117° |
| 2026-04-25 18:37 | 18.91717 | -28.41460 | 35025 ft | 544 kts | 117° |
| 2026-04-25 18:37 | 18.88365 | -28.34252 | 35027 ft | 544 kts | 117° |
| 2026-04-25 18:38 | 18.85042 | -28.27112 | 35025 ft | 543 kts | 117° |
| 2026-04-25 18:38 | 18.81700 | -28.19942 | 35018 ft | 543 kts | 117° |
| 2026-04-25 18:39 | 18.78339 | -28.12741 | 35012 ft | 543 kts | 117° |
| 2026-04-25 18:39 | 18.74992 | -28.05577 | 35009 ft | 543 kts | 117° |
| 2026-04-25 18:40 | 18.71650 | -27.98432 | 35008 ft | 543 kts | 117° |
| 2026-04-25 18:40 | 18.68294 | -27.91266 | 35008 ft | 543 kts | 117° |
| 2026-04-25 18:41 | 18.64915 | -27.84060 | 34999 ft | 543 kts | 117° |
| 2026-04-25 18:41 | 18.61544 | -27.76882 | 35001 ft | 543 kts | 117° |
| 2026-04-25 18:42 | 18.58723 | -27.70879 | 35006 ft | 545 kts | 117° |
| 2026-04-25 18:42 | 18.54784 | -27.62508 | 35004 ft | 548 kts | 117° |
| 2026-04-25 18:43 | 18.51382 | -27.55287 | 35003 ft | 548 kts | 117° |
| 2026-04-25 18:43 | 18.47982 | -27.48082 | 35000 ft | 547 kts | 117° |
| 2026-04-25 18:44 | 18.44570 | -27.40857 | 34998 ft | 547 kts | 117° |
| 2026-04-25 18:44 | 18.41179 | -27.33687 | 34999 ft | 546 kts | 117° |
| 2026-04-25 18:45 | 18.37807 | -27.26566 | 35000 ft | 545 kts | 117° |
| 2026-04-25 18:45 | 18.34407 | -27.19392 | 34996 ft | 545 kts | 117° |
| 2026-04-25 18:46 | 18.31033 | -27.12281 | 34996 ft | 545 kts | 117° |
| 2026-04-25 18:46 | 18.27620 | -27.05100 | 34997 ft | 544 kts | 117° |
| 2026-04-25 18:47 | 18.24243 | -26.97999 | 34993 ft | 544 kts | 117° |
| 2026-04-25 18:47 | 18.20846 | -26.90866 | 34994 ft | 544 kts | 118° |
| 2026-04-25 18:48 | 18.17447 | -26.83737 | 34993 ft | 544 kts | 118° |
| 2026-04-25 18:48 | 18.14041 | -26.76601 | 34992 ft | 544 kts | 118° |
| 2026-04-25 18:49 | 18.10648 | -26.69503 | 34994 ft | 544 kts | 118° |
| 2026-04-25 18:49 | 18.07234 | -26.62366 | 34992 ft | 543 kts | 118° |
| 2026-04-25 18:50 | 18.03824 | -26.55249 | 34992 ft | 543 kts | 117° |
| 2026-04-25 18:50 | 18.00430 | -26.48171 | 34990 ft | 542 kts | 118° |
| 2026-04-25 18:51 | 17.97609 | -26.42295 | 34990 ft | 542 kts | 118° |
| 2026-04-25 18:51 | 17.93634 | -26.34025 | 34988 ft | 541 kts | 118° |
| 2026-04-25 18:52 | 17.90244 | -26.26980 | 34988 ft | 540 kts | 118° |
| 2026-04-25 18:52 | 17.86831 | -26.19896 | 34986 ft | 540 kts | 118° |
| 2026-04-25 18:53 | 17.83496 | -26.12787 | 34986 ft | 541 kts | 115° |
| 2026-04-25 18:53 | 17.80466 | -26.05525 | 34984 ft | 542 kts | 115° |
| 2026-04-25 18:54 | 17.75742 | -25.94717 | 34991 ft | 540 kts | 117° |
| 2026-04-25 18:55 | 17.72393 | -25.87600 | 34987 ft | 540 kts | 118° |
| 2026-04-25 18:55 | 17.68893 | -25.80651 | 34989 ft | 540 kts | 120° |
| 2026-04-25 18:56 | 17.65280 | -25.73695 | 34986 ft | 540 kts | 120° |
| 2026-04-25 18:56 | 17.61682 | -25.66782 | 34981 ft | 539 kts | 120° |
| 2026-04-25 18:57 | 17.58081 | -25.59875 | 34978 ft | 539 kts | 120° |
| 2026-04-25 18:57 | 17.54464 | -25.52949 | 34977 ft | 538 kts | 120° |
| 2026-04-25 18:58 | 17.50844 | -25.46030 | 34982 ft | 538 kts | 120° |
| 2026-04-25 18:58 | 17.45454 | -25.35743 | 34978 ft | 538 kts | 120° |
| 2026-04-25 18:59 | 17.38245 | -25.22014 | 34976 ft | 538 kts | 120° |
| 2026-04-25 19:00 | 17.32806 | -25.11678 | 34977 ft | 537 kts | 120° |
| 2026-04-25 19:01 | 17.27378 | -25.01380 | 34969 ft | 537 kts | 120° |
| 2026-04-25 19:01 | 17.23749 | -24.94505 | 34969 ft | 537 kts | 120° |
| 2026-04-25 19:02 | 17.18317 | -24.84226 | 34968 ft | 537 kts | 120° |
| 2026-04-25 19:03 | 17.13490 | -24.75107 | 34969 ft | 536 kts | 120° |
| 2026-04-25 19:03 | 17.09244 | -24.67096 | 34971 ft | 536 kts | 120° |
| 2026-04-25 19:04 | 17.03803 | -24.56844 | 34968 ft | 536 kts | 120° |
| 2026-04-25 19:05 | 16.96565 | -24.43232 | 34969 ft | 536 kts | 120° |
| 2026-04-25 19:06 | 16.92920 | -24.36388 | 34965 ft | 537 kts | 120° |
| 2026-04-25 19:06 | 16.87460 | -24.26149 | 34966 ft | 536 kts | 120° |
| 2026-04-25 19:07 | 16.81981 | -24.15887 | 34965 ft | 536 kts | 120° |
| 2026-04-25 19:08 | 16.76512 | -24.05663 | 34966 ft | 536 kts | 120° |
| 2026-04-25 19:09 | 16.69815 | -23.93161 | 34964 ft | 536 kts | 120° |
| 2026-04-25 19:10 | 16.63716 | -23.81797 | 34960 ft | 535 kts | 120° |
| 2026-04-25 19:10 | 16.60068 | -23.75009 | 34964 ft | 535 kts | 120° |
| 2026-04-25 19:11 | 16.56444 | -23.68271 | 34964 ft | 535 kts | 120° |
| 2026-04-25 19:11 | 16.52790 | -23.61485 | 34963 ft | 535 kts | 120° |
| 2026-04-25 19:12 | 16.49131 | -23.54696 | 34963 ft | 535 kts | 121° |
| 2026-04-25 19:12 | 16.45479 | -23.47928 | 34960 ft | 535 kts | 120° |
| 2026-04-25 19:13 | 16.41831 | -23.41173 | 34956 ft | 535 kts | 121° |
| 2026-04-25 19:13 | 16.38164 | -23.34388 | 34950 ft | 535 kts | 121° |
| 2026-04-25 19:14 | 16.34511 | -23.27638 | 34952 ft | 534 kts | 121° |
| 2026-04-25 19:14 | 16.30866 | -23.20908 | 34944 ft | 534 kts | 121° |
| 2026-04-25 19:15 | 16.27215 | -23.14174 | 34937 ft | 534 kts | 121° |
| 2026-04-25 19:15 | 16.23553 | -23.07425 | 34941 ft | 533 kts | 121° |
| 2026-04-25 19:16 | 16.19899 | -23.00699 | 34937 ft | 533 kts | 121° |
| 2026-04-25 19:16 | 16.16226 | -22.93942 | 34935 ft | 533 kts | 121° |
| 2026-04-25 19:17 | 16.12586 | -22.87228 | 34934 ft | 533 kts | 120° |
| 2026-04-25 19:17 | 16.09008 | -22.80485 | 34935 ft | 533 kts | 120° |
| 2026-04-25 19:18 | 16.05406 | -22.73704 | 34941 ft | 533 kts | 120° |
| 2026-04-25 19:18 | 16.01814 | -22.66949 | 34944 ft | 533 kts | 120° |
| 2026-04-25 19:19 | 15.98230 | -22.60216 | 34941 ft | 533 kts | 120° |
| 2026-04-25 19:19 | 15.94614 | -22.53429 | 34937 ft | 533 kts | 120° |
| 2026-04-25 19:20 | 15.91033 | -22.46716 | 34935 ft | 533 kts | 120° |
| 2026-04-25 19:20 | 15.87430 | -22.39968 | 34935 ft | 532 kts | 120° |
| 2026-04-25 19:21 | 15.83842 | -22.33252 | 34934 ft | 532 kts | 120° |
| 2026-04-25 19:21 | 15.78427 | -22.23132 | 34938 ft | 532 kts | 120° |
| 2026-04-25 19:22 | 15.74831 | -22.16418 | 34946 ft | 532 kts | 120° |
| 2026-04-25 19:23 | 15.69420 | -22.06328 | 34942 ft | 532 kts | 120° |
| 2026-04-25 19:23 | 15.64010 | -21.96254 | 34937 ft | 532 kts | 120° |
| 2026-04-25 19:24 | 15.60431 | -21.89596 | 34934 ft | 531 kts | 120° |
| 2026-04-25 19:25 | 15.53411 | -21.76558 | 34919 ft | 531 kts | 120° |
| 2026-04-25 19:25 | 15.49791 | -21.69843 | 34916 ft | 531 kts | 120° |
| 2026-04-25 19:26 | 15.46186 | -21.63162 | 34919 ft | 531 kts | 120° |
| 2026-04-25 19:26 | 15.42568 | -21.56461 | 34917 ft | 531 kts | 120° |
| 2026-04-25 19:27 | 15.39574 | -21.50922 | 34910 ft | 531 kts | 120° |
| 2026-04-25 19:27 | 15.35362 | -21.43135 | 34911 ft | 530 kts | 120° |
| 2026-04-25 19:28 | 15.31744 | -21.36455 | 34909 ft | 530 kts | 120° |
| 2026-04-25 19:28 | 15.28130 | -21.29786 | 34915 ft | 530 kts | 120° |
| 2026-04-25 19:29 | 15.24508 | -21.23108 | 34915 ft | 529 kts | 120° |
| 2026-04-25 19:29 | 15.20885 | -21.16435 | 34913 ft | 529 kts | 120° |
| 2026-04-25 19:30 | 15.17277 | -21.09795 | 34912 ft | 529 kts | 120° |
| 2026-04-25 19:30 | 15.13658 | -21.03141 | 34911 ft | 529 kts | 120° |
| 2026-04-25 19:31 | 15.10021 | -20.96459 | 34907 ft | 528 kts | 120° |
| 2026-04-25 19:31 | 15.06398 | -20.89808 | 34910 ft | 528 kts | 120° |
| 2026-04-25 19:32 | 15.02776 | -20.83165 | 34902 ft | 528 kts | 120° |
| 2026-04-25 19:32 | 14.99744 | -20.77609 | 34901 ft | 528 kts | 120° |
| 2026-04-25 19:33 | 14.95508 | -20.69852 | 34900 ft | 528 kts | 120° |
| 2026-04-25 19:33 | 14.91880 | -20.63215 | 34904 ft | 528 kts | 120° |
| 2026-04-25 19:34 | 14.88266 | -20.56610 | 34899 ft | 528 kts | 120° |
| 2026-04-25 19:34 | 14.84628 | -20.49965 | 34895 ft | 528 kts | 120° |
| 2026-04-25 19:35 | 14.81018 | -20.43377 | 34895 ft | 528 kts | 120° |
| 2026-04-25 19:35 | 14.77363 | -20.36714 | 34898 ft | 527 kts | 120° |
| 2026-04-25 19:36 | 14.73739 | -20.30112 | 34892 ft | 527 kts | 120° |
| 2026-04-25 19:36 | 14.70117 | -20.23508 | 34894 ft | 526 kts | 119° |
| 2026-04-25 19:37 | 14.67343 | -20.16520 | 34891 ft | 526 kts | 108° |
| 2026-04-25 19:37 | 14.65031 | -20.09289 | 34894 ft | 526 kts | 108° |
| 2026-04-25 19:38 | 14.62711 | -20.02051 | 34895 ft | 527 kts | 108° |
| 2026-04-25 19:38 | 14.60397 | -19.94843 | 34886 ft | 527 kts | 108° |
| 2026-04-25 19:39 | 14.58093 | -19.87672 | 34887 ft | 527 kts | 108° |
| 2026-04-25 19:39 | 14.55768 | -19.80442 | 34886 ft | 527 kts | 108° |
| 2026-04-25 19:40 | 14.53465 | -19.73288 | 34883 ft | 527 kts | 108° |
| 2026-04-25 19:40 | 14.51121 | -19.66014 | 34886 ft | 527 kts | 108° |
| 2026-04-25 19:41 | 14.48802 | -19.58826 | 34890 ft | 527 kts | 108° |
| 2026-04-25 19:41 | 14.46868 | -19.52840 | 34879 ft | 527 kts | 108° |
| 2026-04-25 19:42 | 14.44156 | -19.44450 | 34879 ft | 527 kts | 108° |
| 2026-04-25 19:42 | 14.41832 | -19.37273 | 34886 ft | 527 kts | 108° |
| 2026-04-25 19:43 | 14.39481 | -19.30017 | 34880 ft | 527 kts | 108° |
| 2026-04-25 19:43 | 14.37151 | -19.22836 | 34876 ft | 527 kts | 108° |
| 2026-04-25 19:44 | 14.34815 | -19.15642 | 34870 ft | 527 kts | 108° |
| 2026-04-25 19:44 | 14.32493 | -19.08500 | 34869 ft | 527 kts | 108° |
| 2026-04-25 19:45 | 14.30150 | -19.01301 | 34869 ft | 527 kts | 108° |
| 2026-04-25 19:45 | 14.27807 | -18.94114 | 34821 ft | 528 kts | 108° |
| 2026-04-25 19:46 | 14.26632 | -18.90510 | 34593 ft | 531 kts | 108° |
| 2026-04-25 19:46 | 14.25451 | -18.86891 | 34226 ft | 532 kts | 108° |
| 2026-04-25 19:46 | 14.24271 | -18.83277 | 33835 ft | 531 kts | 108° |
| 2026-04-25 19:46 | 14.23087 | -18.79653 | 33349 ft | 532 kts | 107° |
| 2026-04-25 19:47 | 14.21905 | -18.76035 | 32858 ft | 531 kts | 108° |
| 2026-04-25 19:47 | 14.20716 | -18.72401 | 32381 ft | 528 kts | 107° |
| 2026-04-25 19:47 | 14.19550 | -18.68839 | 31888 ft | 523 kts | 107° |
| 2026-04-25 19:47 | 14.18378 | -18.65262 | 31390 ft | 518 kts | 107° |
| 2026-04-25 19:48 | 14.17239 | -18.61784 | 30902 ft | 514 kts | 107° |
| 2026-04-25 19:48 | 14.16088 | -18.58274 | 30400 ft | 509 kts | 107° |
| 2026-04-25 19:48 | 14.14958 | -18.54828 | 29902 ft | 505 kts | 107° |
| 2026-04-25 19:48 | 14.13833 | -18.51399 | 29405 ft | 501 kts | 107° |
| 2026-04-25 19:49 | 14.12727 | -18.48031 | 28910 ft | 496 kts | 107° |
| 2026-04-25 19:49 | 14.11984 | -18.45770 | 28574 ft | 493 kts | 107° |
| 2026-04-25 19:49 | 14.10540 | -18.41374 | 27927 ft | 487 kts | 107° |
| 2026-04-25 19:49 | 14.09448 | -18.38054 | 27380 ft | 483 kts | 107° |
| 2026-04-25 19:50 | 14.07303 | -18.31537 | 26278 ft | 471 kts | 107° |
| 2026-04-25 19:50 | 14.06245 | -18.28322 | 25726 ft | 467 kts | 108° |
| 2026-04-25 19:50 | 14.05199 | -18.25147 | 25171 ft | 464 kts | 108° |
| 2026-04-25 19:51 | 14.04175 | -18.22039 | 24627 ft | 460 kts | 108° |
| 2026-04-25 19:51 | 14.03140 | -18.18899 | 24068 ft | 455 kts | 108° |
| 2026-04-25 19:51 | 14.02137 | -18.15860 | 23535 ft | 449 kts | 108° |
| 2026-04-25 19:51 | 14.01133 | -18.12815 | 22987 ft | 444 kts | 108° |
| 2026-04-25 19:52 | 14.00154 | -18.09850 | 22444 ft | 438 kts | 108° |
| 2026-04-25 19:52 | 13.99159 | -18.06839 | 21889 ft | 433 kts | 108° |
| 2026-04-25 19:52 | 13.98429 | -18.03857 | 21348 ft | 428 kts | 97° |
| 2026-04-25 19:52 | 13.98398 | -18.00834 | 20809 ft | 424 kts | 82° |
| 2026-04-25 19:53 | 13.99088 | -17.97882 | 20269 ft | 419 kts | 68° |
| 2026-04-25 19:53 | 14.00411 | -17.95237 | 19768 ft | 415 kts | 55° |
| 2026-04-25 19:53 | 14.02138 | -17.92820 | 19251 ft | 413 kts | 51° |
| 2026-04-25 19:53 | 14.03873 | -17.90458 | 18748 ft | 411 kts | 51° |
| 2026-04-25 19:54 | 14.05583 | -17.88123 | 18248 ft | 408 kts | 51° |
| 2026-04-25 19:54 | 14.07290 | -17.85791 | 17746 ft | 406 kts | 51° |
| 2026-04-25 19:54 | 14.09004 | -17.83448 | 17246 ft | 403 kts | 51° |
| 2026-04-25 19:54 | 14.10130 | -17.81909 | 16915 ft | 402 kts | 51° |
| 2026-04-25 19:55 | 14.12186 | -17.79104 | 16299 ft | 399 kts | 51° |
| 2026-04-25 19:55 | 14.13846 | -17.76834 | 15797 ft | 396 kts | 52° |
| 2026-04-25 19:55 | 14.15479 | -17.74597 | 15303 ft | 392 kts | 52° |
| 2026-04-25 19:55 | 14.17121 | -17.72348 | 14799 ft | 389 kts | 52° |
| 2026-04-25 19:56 | 14.18730 | -17.70144 | 14305 ft | 386 kts | 53° |
| 2026-04-25 19:56 | 14.20333 | -17.67948 | 13809 ft | 381 kts | 53° |
| 2026-04-25 19:56 | 14.21911 | -17.65785 | 13327 ft | 372 kts | 53° |
| 2026-04-25 19:56 | 14.23466 | -17.63653 | 12855 ft | 373 kts | 53° |
| 2026-04-25 19:57 | 14.25047 | -17.61498 | 12240 ft | 374 kts | 53° |
| 2026-04-25 19:57 | 14.26573 | -17.59384 | 11888 ft | 364 kts | 53° |
| 2026-04-25 19:57 | 14.28084 | -17.57342 | 11694 ft | 346 kts | 53° |
| 2026-04-25 19:57 | 14.29477 | -17.55420 | 11789 ft | 326 kts | 56° |
| 2026-04-25 19:58 | 14.30414 | -17.53354 | 11765 ft | 318 kts | 78° |
| 2026-04-25 19:58 | 14.30448 | -17.51117 | 11286 ft | 314 kts | 104° |
| 2026-04-25 19:58 | 14.29490 | -17.49114 | 10800 ft | 309 kts | 132° |
| 2026-04-25 19:58 | 14.27890 | -17.47664 | 10452 ft | 303 kts | 143° |
| 2026-04-25 19:59 | 14.26240 | -17.46382 | 10146 ft | 297 kts | 144° |
| 2026-04-25 19:59 | 14.24588 | -17.45118 | 9878 ft | 291 kts | 144° |
| 2026-04-25 19:59 | 14.22958 | -17.43870 | 9831 ft | 293 kts | 144° |
| 2026-04-25 19:59 | 14.21321 | -17.42614 | 9836 ft | 293 kts | 143° |
| 2026-04-25 20:00 | 14.20213 | -17.41765 | 9839 ft | 293 kts | 143° |
| 2026-04-25 20:00 | 14.18576 | -17.40509 | 9839 ft | 293 kts | 144° |
| 2026-04-25 20:00 | 14.16394 | -17.38840 | 9835 ft | 294 kts | 144° |
| 2026-04-25 20:00 | 14.14744 | -17.37583 | 9824 ft | 294 kts | 144° |
| 2026-04-25 20:01 | 14.11449 | -17.35066 | 9829 ft | 295 kts | 144° |
| 2026-04-25 20:01 | 14.09784 | -17.33801 | 9825 ft | 295 kts | 144° |
| 2026-04-25 20:01 | 14.08130 | -17.32546 | 9813 ft | 294 kts | 144° |
| 2026-04-25 20:02 | 14.06471 | -17.31300 | 9815 ft | 294 kts | 144° |
| 2026-04-25 20:02 | 14.04842 | -17.30037 | 9816 ft | 293 kts | 137° |
| 2026-04-25 20:02 | 14.03702 | -17.28350 | 9824 ft | 293 kts | 110° |
| 2026-04-25 20:02 | 14.03348 | -17.26256 | 9822 ft | 295 kts | 95° |
| 2026-04-25 20:03 | 14.03214 | -17.24174 | 9823 ft | 295 kts | 94° |
| 2026-04-25 20:03 | 14.03084 | -17.22042 | 9828 ft | 295 kts | 94° |
| 2026-04-25 20:03 | 14.02953 | -17.19949 | 9827 ft | 295 kts | 94° |
| 2026-04-25 20:03 | 14.02821 | -17.17845 | 9823 ft | 296 kts | 94° |
| 2026-04-25 20:04 | 14.02699 | -17.15705 | 9826 ft | 297 kts | 92° |
| 2026-04-25 20:04 | 14.02859 | -17.13631 | 9742 ft | 289 kts | 75° |
| 2026-04-25 20:04 | 14.03795 | -17.11828 | 9247 ft | 291 kts | 46° |
| 2026-04-25 20:04 | 14.05476 | -17.10680 | 8817 ft | 287 kts | 20° |
| 2026-04-25 20:05 | 14.07398 | -17.10258 | 8597 ft | 278 kts | 7° |
| 2026-04-25 20:05 | 14.09313 | -17.10039 | 8216 ft | 276 kts | 6° |
| 2026-04-25 20:05 | 14.11233 | -17.09834 | 8007 ft | 275 kts | 6° |
| 2026-04-25 20:05 | 14.13082 | -17.09636 | 7840 ft | 266 kts | 6° |
| 2026-04-25 20:06 | 14.14963 | -17.09434 | 7320 ft | 271 kts | 6° |
| 2026-04-25 20:06 | 14.16830 | -17.09234 | 6965 ft | 267 kts | 6° |
| 2026-04-25 20:06 | 14.18680 | -17.09036 | 6557 ft | 266 kts | 6° |
| 2026-04-25 20:06 | 14.20501 | -17.08841 | 6210 ft | 262 kts | 6° |
| 2026-04-25 20:07 | 14.22321 | -17.08646 | 5862 ft | 258 kts | 6° |
| 2026-04-25 20:07 | 14.24093 | -17.08456 | 5540 ft | 254 kts | 6° |
| 2026-04-25 20:07 | 14.25833 | -17.08270 | 5220 ft | 250 kts | 6° |
| 2026-04-25 20:07 | 14.27550 | -17.08086 | 4899 ft | 246 kts | 6° |
| 2026-04-25 20:08 | 14.29263 | -17.07903 | 4573 ft | 248 kts | 6° |
| 2026-04-25 20:08 | 14.30997 | -17.07717 | 4244 ft | 251 kts | 6° |
| 2026-04-25 20:08 | 14.32746 | -17.07529 | 3910 ft | 251 kts | 6° |
| 2026-04-25 20:08 | 14.34472 | -17.07344 | 3582 ft | 249 kts | 6° |
| 2026-04-25 20:09 | 14.36204 | -17.07159 | 3251 ft | 247 kts | 6° |
| 2026-04-25 20:09 | 14.37897 | -17.06978 | 2994 ft | 239 kts | 6° |
| 2026-04-25 20:09 | 14.39520 | -17.06777 | 2934 ft | 229 kts | 8° |
| 2026-04-25 20:09 | 14.41120 | -17.06688 | 2916 ft | 230 kts | 1° |
| 2026-04-25 20:10 | 14.42695 | -17.06750 | 2909 ft | 217 kts | 358° |
| 2026-04-25 20:10 | 14.44189 | -17.06842 | 2969 ft | 212 kts | 358° |
| 2026-04-25 20:10 | 14.45674 | -17.06912 | 2975 ft | 212 kts | 359° |
| 2026-04-25 20:10 | 14.47147 | -17.06971 | 2978 ft | 208 kts | 359° |
| 2026-04-25 20:11 | 14.48583 | -17.07026 | 2986 ft | 203 kts | 359° |
| 2026-04-25 20:11 | 14.49989 | -17.07084 | 2987 ft | 202 kts | 359° |
| 2026-04-25 20:11 | 14.51390 | -17.07123 | 2940 ft | 203 kts | 0° |
| 2026-04-25 20:11 | 14.52814 | -17.07144 | 2660 ft | 198 kts | 0° |
| 2026-04-25 20:12 | 14.54131 | -17.07159 | 2451 ft | 178 kts | 0° |
| 2026-04-25 20:12 | 14.55346 | -17.07172 | 2221 ft | 168 kts | 0° |
| 2026-04-25 20:12 | 14.56521 | -17.07182 | 2007 ft | 169 kts | 0° |
| 2026-04-25 20:12 | 14.57278 | -17.07189 | 1865 ft | 158 kts | 360° |
| 2026-04-25 20:13 | 14.58623 | -17.07203 | 1618 ft | 131 kts | 360° |
| 2026-04-25 20:13 | 14.59470 | -17.07211 | 1496 ft | 117 kts | 360° |
| 2026-04-25 20:13 | 14.60290 | -17.07218 | 1297 ft | 117 kts | 360° |
| 2026-04-25 20:13 | 14.61106 | -17.07223 | 1134 ft | 117 kts | 359° |
| 2026-04-25 20:14 | 14.61923 | -17.07232 | 987 ft | 117 kts | 360° |
| 2026-04-25 20:14 | 14.62746 | -17.07239 | 841 ft | 118 kts | 359° |
| 2026-04-25 20:14 | 14.63576 | -17.07242 | 690 ft | 118 kts | 359° |
| 2026-04-25 20:14 | 14.64408 | -17.07254 | 540 ft | 118 kts | 359° |
| 2026-04-25 20:15 | 14.65236 | -17.07263 | 382 ft | 119 kts | 359° |
| 2026-04-25 20:15 | 14.66051 | -17.07272 | 293 ft | 103 kts | 360° |
| 2026-04-25 20:15 | 14.66559 | -17.07275 | 299 ft | 55 kts | 359° |
| 2026-04-25 20:15 | 14.66929 | -17.07280 | 303 ft | 39 kts | 359° |
| 2026-04-25 20:16 | 14.67071 | -17.07236 | 300 ft | 17 kts | 65° |
| 2026-04-25 20:16 | 14.67077 | -17.07143 | 299 ft | 5 kts | 88° |
| 2026-04-25 20:16 | 14.67077 | -17.07129 | 298 ft | 0 kts | 87° |
| 2026-04-25 20:17 | 14.67077 | -17.07128 | 298 ft | 0 kts | 87° |
| 2026-04-25 20:17 | 14.67102 | -17.07096 | 298 ft | 9 kts | 25° |
| 2026-04-25 20:17 | 14.67200 | -17.07092 | 297 ft | 16 kts | 358° |
| 2026-04-25 20:18 | 14.67327 | -17.07093 | 295 ft | 20 kts | 359° |
| 2026-04-25 20:18 | 14.67479 | -17.07095 | 292 ft | 23 kts | 0° |
| 2026-04-25 20:18 | 14.67653 | -17.07097 | 288 ft | 26 kts | 358° |
| 2026-04-25 20:18 | 14.67848 | -17.07098 | 281 ft | 30 kts | 359° |
| 2026-04-25 20:19 | 14.68072 | -17.07101 | 273 ft | 33 kts | 0° |
| 2026-04-25 20:19 | 14.68314 | -17.07104 | 261 ft | 32 kts | 1° |
| 2026-04-25 20:19 | 14.68483 | -17.07104 | 256 ft | 22 kts | 359° |
| 2026-04-25 20:19 | 14.68605 | -17.07106 | 251 ft | 14 kts | 360° |
| 2026-04-25 20:20 | 14.68672 | -17.07037 | 249 ft | 18 kts | 88° |
| 2026-04-25 20:20 | 14.68698 | -17.06904 | 245 ft | 19 kts | 27° |
| 2026-04-25 20:20 | 14.68833 | -17.06898 | 240 ft | 19 kts | 1° |
| 2026-04-25 20:20 | 14.68947 | -17.06899 | 238 ft | 17 kts | 358° |
| 2026-04-25 20:21 | 14.69054 | -17.06914 | 235 ft | 15 kts | 317° |
| 2026-04-25 20:21 | 14.69114 | -17.06993 | 234 ft | 13 kts | 358° |
| 2026-04-25 20:21 | 14.69174 | -17.06983 | 232 ft | 8 kts | 37° |
| 2026-04-25 20:21 | 14.69187 | -17.06939 | 230 ft | 5 kts | 88° |
| 2026-04-25 20:22 | 14.69187 | -17.06906 | 230 ft | 0 kts | 89° |